Сокол

СКИДКИ НА СМАРТФОНЫ!

Карта отелей и гостиниц, располагающихся рядом с аэропортом Сокол :

Сокол
Магадан
Магаданская область 59° 54' 39.5388" N, 150° 43' 13.6812" E
Код аэродрома ИКАО
UHMM
Код аэродрома RU
УХММ
Координаты
N59.91098° E150.72047°
Превышение над уровнем моря
175
Основная полоса
10/28
Курс магнитный
103,8/283,8
Длина основной ВПП
3460
Ширина основной ВПП
60
Покрытие основной ВПП
Твёрдое (бетон)
Освещение ВПП
Постоянное
Тип: 
Аэродром
Класс аэродрома: 
Международный
Принадлежность: 
ГА
Статус: 
Действующий
Сайт: 
http://airport-magadan.ru/
E-mail аэродрома: 
airport-magadan@mail.ru
Страна: 
Россия
Регион: 
Магаданская область
Город: 
Магадан
Дополнительная информация: 
Оператор: ОАО «Аэропорт Магадан». Управление: Северо-Восточное МТУ ВТ ФАВТ (Росавиации). Военный индекс: ЬХММ/XHMM.
Схемы аэропортов: 
Погода: 

Авиационная погода в аэропорту Сокол

Регион: 
Погода METAR: 
UHMM 091600Z 11004MPS 9999 SCT050 15/09 Q1007 RMK QFE740 R28/10005MPS
Время наблюдения
2022-08-09T16:00:00Z
Температура C
15.0
Точка росы
9.0
Направление ветра
110
Скорость ветра (узлы)
8
Метео видимость
6.21
Облачность
SCT
Нижняя граница облачности (футы)
5000
Явления погоды
Условия полета
VFR
Аэропорт подробнее: 
SCT – разбросанная отдельная облачность;

Скидки на навигаторы!

Найти трансфер

С помощью этой формы Вы можете найти трансфер из аэропорта Сокол в город, аэропорт или вокзал:

Погода в аэропортах:

Авиационная погода в Сургуте

Регион: 
Погода METAR: 
USRR 091430Z 01004MPS 2300 HZ BKN022 24/19 Q1016 R25/CLRD60 TEMPO 1200 HZ RMK OBST OBSC QFE756
Время наблюдения
2022-08-09T14:30:00Z
Температура C
24.0
Точка росы
19.0
Направление ветра
10
Скорость ветра (узлы)
8
Метео видимость
1.43
Облачность
BKN
Нижняя граница облачности (футы)
2200
Явления погоды
HZ
Условия полета
IFR
Аэропорт подробнее: 
BKN – значительная (рассеянная, разорванная) облачность;
HZ – мгла (видимость менее 10 км);

Авиационная погода в Нижневартовске

Регион: 
Погода METAR: 
USNN 091530Z 34001MPS 1300 1100NE R21/1200N HZ FEW020CB 22/20 Q1015 R21/0///65 NOSIG RMK QFE756
Время наблюдения
2022-08-09T15:30:00Z
Температура C
22.0
Точка росы
20.0
Направление ветра
340
Скорость ветра (узлы)
2
Метео видимость
0.81
Облачность
FEW
Нижняя граница облачности (футы)
2000
Явления погоды
HZ
Условия полета
LIFR
Аэропорт подробнее: 
FEW – незначительная облачность;
HZ – мгла (видимость менее 10 км);

Авиационная погода в Елизово

Регион: 
Погода METAR: 
UHPP 091600Z 15006MPS 8000 -SHRA SCT008 OVC031CB 12/12 Q1014 R16R/CLRD70 NOSIG RMK QFE757/1010
Время наблюдения
2022-08-09T16:00:00Z
Температура C
12.0
Точка росы
12.0
Направление ветра
150
Скорость ветра (узлы)
12
Метео видимость
4.97
Облачность
SCT
OVC
Нижняя граница облачности (футы)
800
3100
Явления погоды
-SHRA
Условия полета
MVFR
Аэропорт подробнее: 
SCT – разбросанная отдельная облачность; OVC – сплошная облачность;
-SHRA - слабый ливневой дождь;

Авиационная погода в Череповце

Регион: 
Погода METAR: 
ULWC 091530Z 04003MPS 9999 TS SCT026CB 19/12 Q1023 R21/010063 NOSIG RMK QFE757/1010
Время наблюдения
2022-08-09T15:30:00Z
Температура C
19.0
Точка росы
12.0
Направление ветра
40
Скорость ветра (узлы)
6
Метео видимость
6.21
Облачность
SCT
Нижняя граница облачности (футы)
2600
Явления погоды
TS
Условия полета
VFR
Аэропорт подробнее: 
SCT – разбросанная отдельная облачность;